Time;durP1;ratioP1;P1;durP2;ratioP2;P2;SDS_P1;SDS_P2;PMS_P1;PMS_P2;Temp;Humidity;BMP_temperature;BMP_pressure;BME280_temperature;BME280_humidity;BME280_pressure;Samples;Min_cycle;Max_cycle;Signal;HPM_P1;HPM_P2
2024/04/04 00:01:47;;;;;;;0.10;0.10;;;11.30;99.90;;;;;;4977249;28;20022;-80
2024/04/04 00:04:17;;;;;;;1.33;1.20;;;11.30;99.90;;;;;;4981111;28;20039;-80
2024/04/04 00:06:43;;;;;;;0.20;0.20;;;11.30;99.90;;;;;;4983086;28;20042;-80
2024/04/04 00:09:10;;;;;;;0.10;0.10;;;11.20;99.90;;;;;;4983121;28;20030;-80
2024/04/04 00:11:36;;;;;;;0.10;0.10;;;11.10;99.90;;;;;;4982128;28;20022;-80
2024/04/04 00:14:05;;;;;;;0.20;0.20;;;11.10;99.90;;;;;;4981492;28;20038;-80
2024/04/04 00:16:34;;;;;;;0.20;0.20;;;11.10;1.00;;;;;;4980671;28;20479;-80
2024/04/04 00:19:01;;;;;;;0.75;0.75;;;11.10;1.00;;;;;;4984225;28;20047;-80
2024/04/04 00:21:28;;;;;;;0.10;0.10;;;11.10;1.00;;;;;;4981591;28;20030;-80
2024/04/04 00:23:54;;;;;;;0.57;0.45;;;11.10;1.00;;;;;;4982177;28;20026;-80
2024/04/04 00:26:20;;;;;;;0.35;0.35;;;11.20;1.00;;;;;;4984041;28;20035;-80
2024/04/04 00:28:46;;;;;;;0.20;0.20;;;11.10;1.00;;;;;;4987488;28;20105;-79
2024/04/04 00:31:12;;;;;;;0.22;0.22;;;11.00;1.00;;;;;;4985169;28;20026;-80
2024/04/04 00:33:39;;;;;;;0.25;0.25;;;11.00;1.00;;;;;;4984717;28;20049;-80
2024/04/04 00:36:05;;;;;;;0.10;0.10;;;10.90;1.00;;;;;;4977385;28;20034;-80
2024/04/04 00:38:32;;;;;;;0.10;0.10;;;10.90;1.00;;;;;;4973658;28;20376;-79
2024/04/04 00:40:58;;;;;;;0.20;0.20;;;10.90;1.00;;;;;;4972031;28;20049;-80
2024/04/04 00:43:24;;;;;;;0.10;0.10;;;10.80;1.00;;;;;;4973215;28;20033;-79
2024/04/04 00:45:51;;;;;;;0.20;0.20;;;10.80;8.20;;;;;;4954764;28;20043;-79
2024/04/04 00:48:17;;;;;;;0.30;0.30;;;10.70;27.20;;;;;;4974589;28;20388;-79
2024/04/04 00:50:43;;;;;;;0.40;0.40;;;10.70;40.90;;;;;;4973799;28;20037;-79
2024/04/04 00:53:10;;;;;;;0.15;0.15;;;10.60;51.70;;;;;;4975030;28;20372;-79
2024/04/04 00:55:36;;;;;;;0.10;0.10;;;10.50;50.90;;;;;;4976688;28;20030;-79
2024/04/04 00:58:03;;;;;;;0.30;0.30;;;10.40;73.70;;;;;;4975442;28;20050;-78
2024/04/04 01:00:30;;;;;;;0.20;0.20;;;10.40;99.90;;;;;;4975273;28;20041;-78
2024/04/04 01:02:56;;;;;;;0.57;0.40;;;10.50;99.90;;;;;;4976950;28;20038;-78
2024/04/04 01:05:23;;;;;;;3.78;0.25;;;10.70;99.90;;;;;;4978318;28;20384;-78
2024/04/04 01:07:49;;;;;;;0.20;0.20;;;10.80;83.00;;;;;;4978039;28;20031;-78
2024/04/04 01:10:16;;;;;;;2.28;1.08;;;10.90;1.00;;;;;;4977490;28;20378;-78
2024/04/04 01:12:43;;;;;;;0.10;0.10;;;10.90;1.00;;;;;;4976155;28;20042;-78
2024/04/04 01:15:09;;;;;;;0.22;0.22;;;11.00;1.00;;;;;;4978609;28;20027;-78
2024/04/04 01:17:35;;;;;;;0.10;0.10;;;10.90;1.00;;;;;;4978009;28;20035;-78
2024/04/04 01:20:03;;;;;;;0.10;0.10;;;10.90;1.00;;;;;;4979363;28;20042;-78
2024/04/04 01:22:29;;;;;;;1.83;1.02;;;10.90;1.00;;;;;;4980143;28;20046;-79
2024/04/04 01:24:55;;;;;;;1.13;0.55;;;10.90;1.00;;;;;;4980300;28;20085;-78
2024/04/04 01:27:21;;;;;;;1.65;0.73;;;10.90;1.00;;;;;;4979728;28;20049;-78
2024/04/04 01:29:48;;;;;;;0.38;0.38;;;10.90;1.00;;;;;;4981060;28;20368;-78
2024/04/04 01:32:14;;;;;;;0.20;0.20;;;10.90;1.00;;;;;;4982142;28;20034;-78
2024/04/04 01:34:40;;;;;;;0.40;0.40;;;11.00;1.00;;;;;;4962276;28;20053;-78
2024/04/04 01:37:06;;;;;;;0.10;0.10;;;11.00;99.90;;;;;;4984625;28;20065;-78
2024/04/04 01:39:32;;;;;;;0.15;0.15;;;11.10;99.90;;;;;;4983094;28;20035;-78
2024/04/04 01:41:58;;;;;;;0.20;0.20;;;11.10;99.90;;;;;;4983583;28;20037;-78
2024/04/04 01:44:25;;;;;;;0.17;0.17;;;11.10;99.90;;;;;;4982405;28;20373;-78
2024/04/04 01:46:51;;;;;;;3.08;1.02;;;11.10;99.90;;;;;;4986015;28;20037;-78
2024/04/04 01:49:18;;;;;;;0.28;0.28;;;11.10;99.90;;;;;;4983225;28;20037;-78
2024/04/04 01:51:44;;;;;;;0.10;0.10;;;11.00;99.90;;;;;;4982205;28;20440;-78
2024/04/04 01:54:11;;;;;;;0.45;0.45;;;11.00;99.90;;;;;;4983478;28;20035;-78
2024/04/04 01:56:38;;;;;;;2.13;0.70;;;10.90;99.90;;;;;;4979378;28;20035;-78
2024/04/04 01:59:04;;;;;;;0.20;0.20;;;10.90;99.90;;;;;;4976023;28;20133;-77
2024/04/04 02:01:30;;;;;;;0.30;0.30;;;10.90;99.90;;;;;;4975059;28;20037;-78
2024/04/04 02:03:56;;;;;;;0.52;0.38;;;11.00;99.90;;;;;;4977035;28;20022;-78
2024/04/04 02:06:23;;;;;;;0.10;0.10;;;11.00;99.90;;;;;;4977105;28;20340;-79
2024/04/04 02:08:50;;;;;;;0.10;0.10;;;11.10;99.90;;;;;;4978311;28;20034;-78
2024/04/04 02:11:16;;;;;;;0.22;0.22;;;11.20;99.90;;;;;;4976260;28;20046;-79
2024/04/04 02:13:42;;;;;;;0.20;0.20;;;11.30;99.90;;;;;;4978839;28;20027;-78
2024/04/04 02:16:08;;;;;;;0.63;0.50;;;11.50;99.90;;;;;;4979092;28;20039;-78
2024/04/04 02:18:35;;;;;;;0.25;0.25;;;11.50;91.60;;;;;;4935531;28;20047;-77
2024/04/04 02:21:02;;;;;;;0.52;0.52;;;11.40;84.90;;;;;;4978525;28;20029;-77
2024/04/04 02:23:28;;;;;;;0.20;0.20;;;11.40;94.30;;;;;;4980289;28;20045;-77
2024/04/04 02:25:58;;;;;;;0.80;0.65;;;11.40;99.30;;;;;;4980992;28;20030;-76
2024/04/04 02:28:24;;;;;;;0.20;0.20;;;11.40;99.90;;;;;;4981326;28;20379;-76
2024/04/04 02:30:51;;;;;;;0.40;0.40;;;11.40;99.90;;;;;;4980209;28;20034;-78
2024/04/04 02:33:20;;;;;;;0.17;0.17;;;11.30;99.90;;;;;;4981745;28;20026;-78
2024/04/04 02:35:56;;;;;;;1.45;0.47;;;11.30;99.90;;;;;;4982428;28;20041;-78
2024/04/04 02:38:23;;;;;;;0.35;0.35;;;11.30;99.90;;;;;;4965152;28;20038;-78
2024/04/04 02:40:50;;;;;;;0.68;0.60;;;11.30;99.90;;;;;;4980161;28;20031;-78
2024/04/04 02:43:16;;;;;;;0.10;0.10;;;11.30;99.90;;;;;;4983718;28;20330;-78
2024/04/04 02:45:44;;;;;;;0.38;0.38;;;11.30;99.90;;;;;;4965784;28;20369;-78
2024/04/04 02:48:12;;;;;;;0.10;0.10;;;11.30;99.90;;;;;;4979264;28;20030;-77
2024/04/04 02:50:38;;;;;;;0.20;0.20;;;11.40;99.90;;;;;;4983858;28;20041;-77
2024/04/04 02:53:04;;;;;;;0.10;0.10;;;11.40;99.90;;;;;;4984940;28;20023;-77
2024/04/04 02:55:33;;;;;;;0.20;0.20;;;11.50;99.90;;;;;;4982248;28;20038;-77
2024/04/04 02:57:59;;;;;;;0.10;0.10;;;11.60;67.40;;;;;;4983019;28;20027;-77
2024/04/04 03:00:26;;;;;;;1.27;1.20;;;11.70;36.30;;;;;;4982827;28;20026;-77
2024/04/04 03:02:52;;;;;;;0.10;0.10;;;11.70;18.90;;;;;;4984552;28;20041;-77
2024/04/04 03:05:20;;;;;;;0.10;0.10;;;11.80;9.70;;;;;;4983968;28;20039;-78
2024/04/04 03:07:49;;;;;;;0.10;0.10;;;11.80;1.00;;;;;;4985668;28;20038;-79
2024/04/04 03:10:15;;;;;;;0.32;0.20;;;11.90;1.00;;;;;;4970069;28;20371;-80
2024/04/04 03:12:41;;;;;;;0.10;0.10;;;12.00;1.00;;;;;;4986570;28;20356;-79
2024/04/04 03:15:08;;;;;;;1.02;0.40;;;12.00;1.00;;;;;;4987311;28;20353;-78
2024/04/04 03:17:34;;;;;;;0.20;0.20;;;12.00;1.00;;;;;;4981084;28;20034;-77
2024/04/04 03:20:00;;;;;;;0.10;0.10;;;12.00;1.00;;;;;;4971327;28;20070;-78
2024/04/04 03:22:26;;;;;;;0.75;0.60;;;12.00;1.00;;;;;;4973991;28;20046;-78
2024/04/04 03:24:52;;;;;;;3.97;0.95;;;12.00;1.00;;;;;;4975913;28;20444;-78
2024/04/04 03:27:18;;;;;;;0.20;0.20;;;12.00;1.00;;;;;;4974882;28;20034;-78
2024/04/04 03:29:45;;;;;;;3.03;0.45;;;12.00;1.00;;;;;;4973803;28;20051;-78
2024/04/04 03:32:11;;;;;;;0.10;0.10;;;12.10;1.00;;;;;;4976613;28;20376;-78
2024/04/04 03:34:37;;;;;;;0.10;0.10;;;12.10;1.00;;;;;;4979296;28;20484;-79
2024/04/04 03:37:04;;;;;;;9.73;0.55;;;12.20;1.00;;;;;;4979256;28;20138;-81
2024/04/04 03:39:30;;;;;;;0.20;0.20;;;12.20;1.00;;;;;;4975734;28;20114;-81
2024/04/04 03:41:56;;;;;;;0.30;0.30;;;12.20;1.00;;;;;;4978016;28;20026;-81
2024/04/04 03:44:22;;;;;;;0.20;0.20;;;12.20;1.00;;;;;;4978874;28;20099;-78
2024/04/04 03:46:48;;;;;;;0.10;0.10;;;12.20;1.00;;;;;;4979162;28;20407;-79
2024/04/04 03:49:14;;;;;;;0.10;0.10;;;12.20;1.00;;;;;;4977494;28;20361;-79
2024/04/04 03:51:41;;;;;;;0.20;0.20;;;12.20;1.00;;;;;;4980069;28;20033;-78
2024/04/04 03:54:07;;;;;;;0.52;0.52;;;12.20;1.00;;;;;;4980796;28;20030;-79
2024/04/04 03:56:33;;;;;;;1.38;1.25;;;12.20;1.00;;;;;;4979563;28;20035;-78
2024/04/04 03:58:59;;;;;;;0.10;0.10;;;12.20;1.00;;;;;;4982081;28;20031;-79
2024/04/04 04:01:25;;;;;;;0.17;0.17;;;12.10;1.00;;;;;;4979664;28;20030;-78
2024/04/04 04:03:51;;;;;;;0.10;0.10;;;12.10;1.00;;;;;;4981131;28;20026;-79
2024/04/04 04:06:17;;;;;;;0.25;0.25;;;12.10;1.00;;;;;;4982241;28;20035;-78
2024/04/04 04:08:43;;;;;;;2.17;0.32;;;12.10;1.00;;;;;;4982360;28;20038;-78
2024/04/04 04:11:10;;;;;;;0.10;0.10;;;12.10;1.00;;;;;;4983905;28;20030;-78
2024/04/04 04:13:36;;;;;;;0.10;0.10;;;12.10;1.00;;;;;;4983110;28;20051;-80
2024/04/04 04:16:02;;;;;;;0.10;0.10;;;12.10;1.00;;;;;;4982953;28;20046;-79
2024/04/04 04:18:28;;;;;;;0.60;0.60;;;12.10;1.00;;;;;;4981889;28;20073;-78
2024/04/04 04:23:40;;;;;;;0.10;0.10;;;12.00;1.00;;;;;;4981826;28;20026;-78
2024/04/04 04:26:06;;;;;;;0.15;0.15;;;12.00;1.00;;;;;;4984042;28;20031;-79
2024/04/04 04:28:33;;;;;;;0.70;0.70;;;12.00;1.00;;;;;;4981807;28;20035;-79
2024/04/04 04:30:59;;;;;;;0.10;0.10;;;12.10;1.00;;;;;;4984599;28;20022;-79
2024/04/04 04:33:25;;;;;;;6.90;1.67;;;12.10;1.00;;;;;;4983995;28;20038;-79
2024/04/04 04:35:51;;;;;;;0.08;0.08;;;12.00;1.00;;;;;;4983432;28;20044;-78
2024/04/04 04:38:17;;;;;;;0.32;0.32;;;12.00;1.00;;;;;;4976112;28;20045;-79
2024/04/04 04:40:44;;;;;;;0.10;0.10;;;12.10;1.00;;;;;;4969645;28;20027;-79
2024/04/04 04:43:10;;;;;;;0.20;0.20;;;12.10;1.00;;;;;;4973885;28;20038;-79
2024/04/04 04:45:37;;;;;;;0.55;0.55;;;12.10;1.00;;;;;;4973592;28;20431;-79
2024/04/04 04:48:03;;;;;;;0.10;0.10;;;12.00;1.00;;;;;;4974967;28;20030;-79
2024/04/04 04:50:29;;;;;;;4.47;0.47;;;12.10;1.00;;;;;;4973393;28;20034;-79
2024/04/04 04:52:55;;;;;;;0.10;0.10;;;12.10;1.00;;;;;;4975923;28;20039;-78
2024/04/04 04:55:22;;;;;;;0.43;0.43;;;12.10;1.00;;;;;;4975216;28;20046;-79
2024/04/04 04:57:48;;;;;;;0.10;0.10;;;12.10;1.00;;;;;;4974780;28;20027;-78
2024/04/04 05:00:15;;;;;;;0.10;0.10;;;12.10;1.00;;;;;;4976411;28;20026;-79
2024/04/04 05:02:43;;;;;;;0.10;0.10;;;12.10;1.00;;;;;;4975832;28;20027;-78
2024/04/04 05:05:15;;;;;;;0.47;0.45;;;12.10;1.00;;;;;;4978968;28;20120;-78
2024/04/04 05:07:42;;;;;;;0.20;0.20;;;12.10;99.90;;;;;;4976995;28;20418;-80
2024/04/04 05:10:10;;;;;;;0.95;0.43;;;12.20;99.90;;;;;;4977822;28;20487;-79
2024/04/04 05:12:37;;;;;;;0.10;0.10;;;12.10;99.90;;;;;;4981370;28;20232;-79
2024/04/04 05:15:03;;;;;;;0.10;0.10;;;12.20;99.90;;;;;;4978523;28;20054;-78
2024/04/04 05:17:29;;;;;;;1.20;1.10;;;12.20;99.90;;;;;;4978070;28;20039;-79
2024/04/04 05:19:55;;;;;;;0.30;0.30;;;12.20;99.90;;;;;;4961405;28;20063;-79
2024/04/04 05:22:22;;;;;;;0.10;0.10;;;12.30;99.90;;;;;;4961942;28;20023;-78
2024/04/04 05:24:48;;;;;;;0.40;0.40;;;12.30;99.90;;;;;;4962031;28;20039;-79
2024/04/04 05:27:15;;;;;;;1.75;1.05;;;12.30;99.90;;;;;;4959930;28;20027;-79
2024/04/04 05:29:42;;;;;;;2.58;0.63;;;12.30;99.90;;;;;;4962477;28;20050;-78
2024/04/04 05:32:08;;;;;;;0.47;0.43;;;12.30;99.90;;;;;;4967452;28;20031;-79
2024/04/04 05:34:34;;;;;;;0.10;0.10;;;12.30;99.90;;;;;;4965900;28;20043;-79
2024/04/04 05:37:01;;;;;;;0.88;0.68;;;12.30;99.90;;;;;;4965584;28;20047;-80
2024/04/04 05:39:27;;;;;;;0.68;0.55;;;12.30;99.90;;;;;;4965329;28;20090;-78
2024/04/04 05:41:54;;;;;;;0.10;0.10;;;12.30;99.90;;;;;;4967954;28;20035;-78
2024/04/04 05:44:21;;;;;;;0.13;0.13;;;12.30;99.90;;;;;;4969402;28;20027;-79
2024/04/04 05:46:47;;;;;;;0.10;0.10;;;12.30;99.90;;;;;;4969232;28;20352;-79
2024/04/04 05:49:14;;;;;;;0.10;0.10;;;12.30;99.90;;;;;;4963498;28;20027;-79
2024/04/04 05:51:40;;;;;;;0.10;0.10;;;12.30;99.90;;;;;;4961187;28;20034;-79
2024/04/04 05:54:06;;;;;;;0.93;0.90;;;12.30;99.90;;;;;;4965614;28;20630;-80
2024/04/04 05:56:32;;;;;;;0.10;0.10;;;12.40;99.90;;;;;;4968181;28;20034;-80
2024/04/04 05:58:58;;;;;;;0.10;0.10;;;12.40;99.90;;;;;;4960328;28;20384;-80
2024/04/04 06:01:25;;;;;;;0.73;0.50;;;12.70;99.90;;;;;;4955453;28;20031;-79
2024/04/04 06:03:51;;;;;;;1.13;0.63;;;13.00;99.90;;;;;;4955452;28;20030;-79
2024/04/04 06:06:17;;;;;;;0.10;0.10;;;13.30;99.90;;;;;;4957099;28;20028;-77
2024/04/04 06:08:43;;;;;;;0.10;0.10;;;13.60;99.90;;;;;;4958351;28;20030;-79
2024/04/04 06:11:09;;;;;;;0.30;0.30;;;14.00;99.90;;;;;;4957274;28;20023;-78
2024/04/04 06:13:36;;;;;;;0.88;0.65;;;14.00;96.50;;;;;;4958474;28;20023;-79
2024/04/04 06:16:03;;;;;;;0.10;0.10;;;13.70;99.90;;;;;;4962694;28;20043;-79
2024/04/04 06:18:29;;;;;;;0.30;0.28;;;13.80;91.90;;;;;;4959853;28;20066;-79
2024/04/04 06:20:56;;;;;;;0.20;0.20;;;14.10;72.90;;;;;;4973652;28;20035;-82
2024/04/04 06:23:22;;;;;;;0.82;0.80;;;14.40;62.50;;;;;;4975109;28;20043;-81
2024/04/04 06:25:48;;;;;;;0.10;0.10;;;14.90;4.20;;;;;;4961816;28;20132;-80
2024/04/04 06:28:14;;;;;;;0.30;0.30;;;14.60;52.90;;;;;;4958783;28;20035;-81
2024/04/04 06:30:40;;;;;;;0.75;0.70;;;13.90;97.20;;;;;;4959339;28;20050;-80
2024/04/04 06:33:06;;;;;;;0.10;0.10;;;13.50;99.90;;;;;;4962940;28;20038;-80
2024/04/04 06:35:32;;;;;;;0.38;0.38;;;13.40;99.90;;;;;;4961947;28;20046;-79
2024/04/04 06:37:59;;;;;;;0.30;0.30;;;13.40;99.90;;;;;;4961727;28;20065;-82
2024/04/04 06:40:26;;;;;;;0.28;0.28;;;13.60;99.90;;;;;;4962505;28;20026;-82
2024/04/04 06:42:52;;;;;;;5.82;1.20;;;13.80;99.90;;;;;;4964282;28;20495;-83
2024/04/04 06:45:19;;;;;;;7.45;0.30;;;13.80;99.90;;;;;;4965852;28;20376;-82
2024/04/04 06:47:55;;;;;;;0.30;0.30;;;13.60;99.90;;;;;;4960473;28;20035;-83
2024/04/04 06:50:21;;;;;;;1.55;0.82;;;13.60;99.90;;;;;;4955453;28;20491;-83
2024/04/04 06:52:47;;;;;;;2.65;1.50;;;13.50;99.90;;;;;;4980618;28;20054;-83
2024/04/04 06:55:13;;;;;;;0.10;0.10;;;13.50;99.90;;;;;;4967167;28;20500;-82
2024/04/04 06:57:40;;;;;;;3.20;1.45;;;13.50;99.90;;;;;;4979875;28;20044;-80
2024/04/04 07:00:07;;;;;;;0.20;0.20;;;13.40;99.90;;;;;;4965073;28;20041;-81
2024/04/04 07:02:33;;;;;;;0.10;0.10;;;13.30;99.90;;;;;;4968177;28;20053;-82
2024/04/04 07:04:59;;;;;;;0.10;0.10;;;13.30;99.90;;;;;;4966458;28;20440;-83
2024/04/04 07:07:25;;;;;;;0.63;0.63;;;13.30;99.90;;;;;;4978674;28;20376;-84
2024/04/04 07:09:51;;;;;;;0.10;0.10;;;13.30;99.90;;;;;;4961757;28;20031;-81
2024/04/04 07:12:17;;;;;;;1.90;0.75;;;13.20;99.90;;;;;;4958839;28;20042;-82
2024/04/04 07:14:44;;;;;;;0.10;0.10;;;13.30;99.90;;;;;;4957030;28;20112;-82
2024/04/04 07:17:10;;;;;;;1.45;0.57;;;13.40;99.90;;;;;;4962772;28;20841;-81
2024/04/04 07:19:36;;;;;;;0.63;0.45;;;13.40;99.90;;;;;;4965286;28;20053;-81
2024/04/04 07:22:03;;;;;;;0.32;0.30;;;13.40;99.90;;;;;;4973286;28;20054;-82
2024/04/04 07:24:29;;;;;;;0.20;0.20;;;13.40;99.90;;;;;;4979574;28;20027;-82
2024/04/04 07:26:55;;;;;;;0.63;0.63;;;13.40;99.90;;;;;;4973434;28;20038;-81
2024/04/04 07:29:21;;;;;;;0.68;0.68;;;13.30;99.90;;;;;;4969660;28;20034;-81
2024/04/04 07:31:49;;;;;;;0.65;0.55;;;13.20;99.90;;;;;;4969318;28;20033;-77
2024/04/04 07:34:16;;;;;;;0.10;0.10;;;13.10;99.90;;;;;;4971958;28;20352;-76
2024/04/04 07:36:42;;;;;;;0.10;0.10;;;13.10;99.90;;;;;;4975892;28;20340;-78
2024/04/04 07:39:09;;;;;;;0.20;0.20;;;13.00;99.90;;;;;;4975217;28;20467;-77
2024/04/04 07:41:36;;;;;;;0.20;0.20;;;12.90;99.90;;;;;;4981849;28;20361;-75
2024/04/04 07:44:02;;;;;;;0.22;0.22;;;12.80;99.90;;;;;;4980783;28;20359;-77
2024/04/04 07:46:29;;;;;;;0.10;0.10;;;12.80;99.90;;;;;;4979595;28;20034;-78
2024/04/04 07:48:56;;;;;;;5.25;2.40;;;12.80;99.90;;;;;;4976680;28;20047;-77
2024/04/04 07:51:23;;;;;;;0.10;0.10;;;12.80;99.90;;;;;;4978426;28;20045;-79
2024/04/04 07:53:50;;;;;;;0.17;0.17;;;12.70;99.90;;;;;;4978215;28;20026;-78
2024/04/04 07:56:16;;;;;;;2.20;0.55;;;12.70;99.90;;;;;;4979796;28;20061;-77
2024/04/04 07:58:47;;;;;;;1.98;0.63;;;12.70;99.90;;;;;;4981350;28;20031;-77
2024/04/04 08:01:15;;;;;;;2.80;1.05;;;12.60;1.00;;;;;;4971303;28;20348;-80
2024/04/04 08:03:42;;;;;;;0.05;0.05;;;12.50;1.00;;;;;;4979884;28;20056;-77
2024/04/04 08:06:09;;;;;;;1.27;0.73;;;12.60;1.00;;;;;;4981067;28;20057;-79
2024/04/04 08:08:35;;;;;;;0.10;0.10;;;12.50;1.00;;;;;;4980863;28;20334;-78
2024/04/04 08:11:01;;;;;;;0.40;0.40;;;12.50;1.00;;;;;;4982354;28;20030;-77
2024/04/04 08:13:27;;;;;;;0.10;0.10;;;12.50;1.00;;;;;;4982460;28;20023;-77
2024/04/04 08:15:54;;;;;;;0.90;0.22;;;12.50;1.00;;;;;;4982355;28;20034;-78
2024/04/04 08:18:21;;;;;;;0.55;0.55;;;12.60;1.00;;;;;;4970643;28;20046;-78
2024/04/04 08:20:47;;;;;;;0.00;0.00;;;12.60;1.00;;;;;;4959094;28;20034;-78
2024/04/04 08:23:13;;;;;;;1.95;1.05;;;12.70;1.00;;;;;;4961477;28;20027;-78
2024/04/04 08:25:40;;;;;;;0.10;0.10;;;12.70;1.00;;;;;;4963928;28;20058;-78
2024/04/04 08:28:07;;;;;;;0.10;0.10;;;12.70;1.00;;;;;;4960159;28;20050;-78
2024/04/04 08:30:33;;;;;;;0.10;0.10;;;12.80;1.00;;;;;;4961877;28;20026;-78
2024/04/04 08:32:59;;;;;;;0.40;0.40;;;12.80;1.00;;;;;;4976505;28;20032;-77
2024/04/04 08:35:25;;;;;;;0.10;0.10;;;12.80;1.00;;;;;;4967328;28;20372;-76
2024/04/04 08:37:52;;;;;;;0.35;0.35;;;12.80;1.00;;;;;;4966885;28;20139;-78
2024/04/04 08:40:18;;;;;;;0.20;0.20;;;12.90;1.00;;;;;;4962268;28;20495;-78
2024/04/04 08:42:45;;;;;;;0.10;0.10;;;12.90;99.90;;;;;;4952230;28;20031;-79
2024/04/04 08:45:12;;;;;;;6.47;0.40;;;12.90;1.00;;;;;;4954088;28;20027;-79
2024/04/04 08:47:40;;;;;;;0.57;0.57;;;12.90;1.00;;;;;;4968270;28;20035;-80
2024/04/04 08:50:08;;;;;;;0.10;0.10;;;13.00;1.00;;;;;;4954558;28;20026;-79
2024/04/04 08:52:34;;;;;;;0.30;0.13;;;13.00;1.00;;;;;;4956420;28;20035;-78
2024/04/04 08:55:01;;;;;;;2.53;0.95;;;13.00;99.90;;;;;;4956146;28;20475;-79
2024/04/04 08:57:30;;;;;;;0.10;0.10;;;13.00;1.00;;;;;;4955316;28;20043;-79
2024/04/04 09:00:00;;;;;;;0.22;0.22;;;13.00;1.00;;;;;;4957595;28;20368;-80
2024/04/04 09:02:29;;;;;;;0.10;0.10;;;13.00;1.00;;;;;;4956831;28;20038;-79
2024/04/04 09:05:07;;;;;;;4.88;1.70;;;12.90;1.00;;;;;;4964798;28;20039;-78
2024/04/04 09:07:35;;;;;;;1.65;0.65;;;12.90;1.00;;;;;;4963433;28;20042;-81
2024/04/04 09:10:02;;;;;;;0.10;0.10;;;12.90;1.00;;;;;;4964416;28;20026;-78
2024/04/04 09:12:29;;;;;;;0.10;0.10;;;13.00;1.00;;;;;;4963870;28;20034;-79
2024/04/04 09:15:00;;;;;;;0.68;0.68;;;13.00;1.00;;;;;;4963932;28;20425;-78
2024/04/04 09:17:27;;;;;;;1.65;0.52;;;13.00;1.00;;;;;;4966197;28;20047;-79
2024/04/04 09:19:54;;;;;;;0.13;0.13;;;13.00;1.00;;;;;;4958701;28;20047;-79
2024/04/04 09:22:26;;;;;;;1.70;0.30;;;13.20;99.90;;;;;;4984408;28;20483;-78
2024/04/04 09:24:57;;;;;;;2.97;2.00;;;13.40;99.90;;;;;;4967897;28;20026;-79
2024/04/04 09:27:23;;;;;;;1.92;0.73;;;13.60;99.90;;;;;;4970611;28;20042;-80
2024/04/04 09:29:51;;;;;;;1.17;1.05;;;13.70;99.90;;;;;;4986336;28;20053;-81
2024/04/04 09:32:19;;;;;;;2.53;1.58;;;13.90;99.90;;;;;;4986768;28;20041;-80
2024/04/04 09:34:46;;;;;;;0.68;0.68;;;14.00;99.90;;;;;;4987651;28;20035;-80
2024/04/04 09:37:15;;;;;;;0.93;0.65;;;14.10;99.90;;;;;;4985845;28;20049;-80
2024/04/04 09:39:42;;;;;;;0.93;0.60;;;14.10;99.90;;;;;;4987700;28;20034;-80
2024/04/04 09:42:09;;;;;;;2.92;0.85;;;14.20;99.90;;;;;;4988285;28;20042;-79
2024/04/04 09:44:38;;;;;;;0.60;0.60;;;14.30;99.90;;;;;;4987599;28;20375;-79
2024/04/04 09:47:04;;;;;;;0.10;0.10;;;14.40;99.90;;;;;;4989559;28;20049;-78
2024/04/04 09:49:32;;;;;;;0.28;0.25;;;14.40;79.20;;;;;;4989561;28;20026;-79
2024/04/04 09:52:01;;;;;;;0.30;0.30;;;14.40;99.90;;;;;;4988339;28;20041;-79
2024/04/04 09:54:30;;;;;;;;;;;14.40;99.90;;;;;;4988085;28;20380;-82
2024/04/04 09:56:58;;;;;;;0.05;0.05;;;14.30;99.90;;;;;;4989692;28;19910;-78
2024/04/04 09:59:29;;;;;;;0.20;0.20;;;14.20;87.10;;;;;;4990743;28;20756;-80
2024/04/04 10:02:02;;;;;;;0.28;0.25;;;14.10;99.90;;;;;;4977134;28;20031;-79
2024/04/04 10:04:35;;;;;;;0.52;0.47;;;14.10;99.90;;;;;;4978258;28;20034;-77
2024/04/04 10:07:02;;;;;;;0.15;0.15;;;14.00;99.90;;;;;;4979817;28;20026;-79
2024/04/04 10:09:39;;;;;;;0.20;0.20;;;14.00;99.90;;;;;;4975376;28;20027;-80
2024/04/04 10:12:15;;;;;;;0.10;0.10;;;13.90;99.90;;;;;;4979438;28;20468;-78
2024/04/04 10:14:51;;;;;;;6.03;1.45;;;13.90;99.90;;;;;;4974045;28;20031;-78
2024/04/04 10:17:17;;;;;;;0.38;0.22;;;13.90;99.90;;;;;;4980624;28;20046;-79
2024/04/04 10:19:48;;;;;;;0.10;0.10;;;14.00;99.90;;;;;;4963151;28;20051;-78
2024/04/04 10:22:18;;;;;;;0.20;0.20;;;14.00;99.90;;;;;;4956500;28;20035;-80
2024/04/04 10:24:44;;;;;;;0.20;0.20;;;14.10;99.90;;;;;;4953657;28;20031;-77
2024/04/04 10:27:13;;;;;;;2.53;0.55;;;14.10;99.90;;;;;;4959811;28;20349;-78
2024/04/04 10:29:40;;;;;;;0.20;0.20;;;14.00;99.90;;;;;;4960778;28;20477;-79
2024/04/04 10:32:09;;;;;;;0.80;0.40;;;13.90;99.90;;;;;;4943573;28;20027;-78
2024/04/04 10:34:36;;;;;;;0.10;0.10;;;13.80;99.90;;;;;;4962753;28;20023;-79
2024/04/04 10:37:04;;;;;;;0.32;0.32;;;13.90;99.90;;;;;;4962199;28;20067;-79
2024/04/04 10:39:30;;;;;;;1.10;0.90;;;13.90;99.90;;;;;;4959971;28;20062;-81
2024/04/04 10:41:58;;;;;;;0.43;0.43;;;14.10;99.90;;;;;;4967292;28;20046;-79
2024/04/04 10:44:25;;;;;;;4.80;0.82;;;14.30;99.90;;;;;;4960395;28;20491;-79
2024/04/04 10:46:56;;;;;;;5.93;0.40;;;14.30;98.80;;;;;;4963245;28;20472;-79
2024/04/04 10:49:24;;;;;;;1.65;0.77;;;14.50;98.40;;;;;;4962480;28;20042;-80
2024/04/04 10:52:03;;;;;;;0.25;0.25;;;14.50;72.30;;;;;;4962846;28;20031;-78
2024/04/04 10:54:31;;;;;;;0.10;0.10;;;14.40;64.30;;;;;;4958910;28;20046;-82
2024/04/04 10:57:00;;;;;;;0.50;0.30;;;14.20;38.10;;;;;;4964514;28;20043;-79
2024/04/04 10:59:27;;;;;;;0.20;0.20;;;14.10;99.90;;;;;;4967538;28;20071;-80
2024/04/04 11:01:57;;;;;;;0.20;0.20;;;14.10;86.70;;;;;;4957058;28;20039;-79
2024/04/04 11:04:24;;;;;;;0.43;0.43;;;14.00;97.30;;;;;;4963500;28;20038;-79
2024/04/04 11:06:51;;;;;;;0.47;0.35;;;13.90;91.10;;;;;;4950334;28;20046;-80
2024/04/04 11:09:21;;;;;;;0.32;0.32;;;13.90;99.90;;;;;;4964672;28;20023;-80
2024/04/04 11:11:53;;;;;;;0.52;0.52;;;13.90;75.90;;;;;;4964520;28;20570;-79
2024/04/04 11:14:25;;;;;;;0.10;0.10;;;14.00;93.20;;;;;;4964767;28;20038;-80
2024/04/04 11:16:56;;;;;;;4.78;0.70;;;14.00;94.10;;;;;;4967647;28;20043;-79
2024/04/04 11:19:23;;;;;;;1.08;1.02;;;13.90;85.90;;;;;;4975930;28;20049;-79
2024/04/04 11:21:50;;;;;;;0.85;0.43;;;13.80;91.80;;;;;;4977738;28;20034;-78
2024/04/04 11:24:18;;;;;;;1.77;1.15;;;13.80;99.90;;;;;;4974567;28;20486;-76
2024/04/04 11:26:44;;;;;;;0.10;0.10;;;13.80;99.90;;;;;;4973257;28;20043;-77
2024/04/04 11:29:11;;;;;;;0.10;0.10;;;13.70;99.90;;;;;;4975346;28;20023;-77
2024/04/04 11:31:37;;;;;;;0.40;0.40;;;13.70;99.90;;;;;;4973363;28;20042;-78
2024/04/04 11:34:04;;;;;;;1.35;0.30;;;13.60;99.90;;;;;;4976213;28;20042;-78
2024/04/04 11:36:30;;;;;;;0.20;0.20;;;13.50;99.90;;;;;;4976003;28;20055;-78
2024/04/04 11:38:56;;;;;;;0.10;0.10;;;13.40;99.90;;;;;;4976408;28;20031;-78
2024/04/04 11:41:24;;;;;;;0.73;0.73;;;13.30;99.90;;;;;;4975833;28;20050;-78
2024/04/04 11:43:50;;;;;;;0.20;0.20;;;13.20;99.90;;;;;;4976837;28;20031;-78
2024/04/04 11:46:18;;;;;;;0.90;0.75;;;13.10;99.90;;;;;;4976198;28;20057;-78
2024/04/04 11:48:44;;;;;;;0.45;0.40;;;13.00;99.90;;;;;;4978978;28;20057;-79
2024/04/04 11:51:11;;;;;;;1.10;1.10;;;12.90;1.00;;;;;;4976003;28;20035;-80
2024/04/04 11:53:37;;;;;;;0.43;0.43;;;12.80;1.00;;;;;;4975552;28;20023;-78
2024/04/04 11:56:05;;;;;;;0.75;0.52;;;12.80;1.00;;;;;;4975876;28;20034;-80
2024/04/04 11:58:32;;;;;;;1.55;0.52;;;12.70;1.00;;;;;;4981621;28;20376;-78
2024/04/04 12:00:59;;;;;;;0.20;0.20;;;12.70;1.00;;;;;;4980634;28;20034;-79
2024/04/04 12:03:26;;;;;;;0.10;0.10;;;12.60;12.40;;;;;;4979930;28;20395;-80
2024/04/04 12:05:53;;;;;;;2.33;0.50;;;12.60;51.10;;;;;;4977920;28;20022;-81
2024/04/04 12:08:19;;;;;;;0.90;0.90;;;12.60;43.70;;;;;;4982940;28;20030;-80
2024/04/04 12:10:46;;;;;;;0.82;0.82;;;12.60;99.90;;;;;;4980902;28;20038;-82
2024/04/04 12:13:13;;;;;;;0.38;0.32;;;12.70;99.90;;;;;;4979979;28;20026;-82
2024/04/04 12:15:40;;;;;;;1.02;0.63;;;12.70;99.90;;;;;;4980811;28;20475;-82
2024/04/04 12:20:51;;;;;;;0.70;0.47;;;12.70;66.60;;;;;;4980068;28;20030;-82
2024/04/04 12:23:18;;;;;;;3.05;0.52;;;12.70;99.90;;;;;;4983513;28;20033;-83
2024/04/04 12:25:48;;;;;;;0.35;0.35;;;12.60;99.90;;;;;;4984747;28;20042;-85
2024/04/04 12:28:17;;;;;;;0.50;0.47;;;12.60;99.90;;;;;;4983972;28;20038;-84
2024/04/04 12:30:43;;;;;;;0.10;0.10;;;12.70;99.90;;;;;;4978065;28;20031;-82
2024/04/04 12:33:09;;;;;;;1.95;1.55;;;12.80;91.30;;;;;;4989118;28;20026;-82
2024/04/04 12:35:36;;;;;;;1.05;0.95;;;12.90;43.80;;;;;;4984269;28;20027;-82
2024/04/04 12:38:02;;;;;;;1.30;0.43;;;12.90;31.00;;;;;;4987064;28;20043;-80
2024/04/04 12:40:28;;;;;;;0.40;0.40;;;12.90;31.50;;;;;;4973693;28;20507;-79
2024/04/04 12:42:54;;;;;;;13.05;0.73;;;12.90;28.20;;;;;;4974831;28;20519;-78
2024/04/04 12:45:21;;;;;;;0.82;0.55;;;12.90;23.10;;;;;;4975848;28;20030;-78
2024/04/04 12:47:47;;;;;;;3.15;0.95;;;12.80;99.90;;;;;;4970659;28;20034;-78
2024/04/04 12:50:15;;;;;;;0.20;0.20;;;12.70;56.50;;;;;;4973470;28;20346;-78
2024/04/04 12:52:41;;;;;;;0.95;0.75;;;12.70;99.90;;;;;;4970533;28;20038;-77
2024/04/04 12:55:09;;;;;;;0.10;0.10;;;12.60;99.90;;;;;;4974388;28;20034;-78